Time;durP1;ratioP1;P1;durP2;ratioP2;P2;SDS_P1;SDS_P2;PMS_P1;PMS_P2;Temp;Humidity;BMP_temperature;BMP_pressure;BME280_temperature;BME280_humidity;BME280_pressure;Samples;Min_cycle;Max_cycle;Signal;HPM_P1;HPM_P2
2022/09/26 00:01:26;;;;;;;12.98;9.13;;;11.90;99.90;;;;;;5020508;28;20502;-41
2022/09/26 00:03:55;;;;;;;15.00;8.40;;;11.90;99.90;;;;;;5022400;28;20392;-42
2022/09/26 00:06:21;;;;;;;13.50;8.40;;;11.90;99.90;;;;;;5020502;28;20122;-39
2022/09/26 00:08:48;;;;;;;13.65;8.13;;;11.80;99.90;;;;;;5021247;28;20045;-41
2022/09/26 00:11:19;;;;;;;14.10;7.70;;;11.80;99.90;;;;;;5021300;28;20124;-41
2022/09/26 00:13:45;;;;;;;15.90;8.05;;;11.80;99.90;;;;;;5023249;28;20044;-40
2022/09/26 00:16:11;;;;;;;13.65;8.82;;;11.80;99.90;;;;;;5024778;28;20565;-41
2022/09/26 00:18:38;;;;;;;13.10;7.85;;;11.80;99.90;;;;;;5020781;28;20026;-38
2022/09/26 00:21:04;;;;;;;15.40;8.82;;;11.80;99.90;;;;;;5023735;28;20140;-39
2022/09/26 00:23:30;;;;;;;13.57;8.85;;;11.80;99.90;;;;;;5020467;28;20068;-42
2022/09/26 00:25:57;;;;;;;15.88;9.23;;;11.80;99.90;;;;;;5019477;28;20034;-40
2022/09/26 00:28:23;;;;;;;13.50;8.82;;;11.80;99.90;;;;;;5021973;28;20545;-41
2022/09/26 00:30:49;;;;;;;12.60;8.63;;;11.80;99.90;;;;;;5023110;28;20038;-39
2022/09/26 00:33:14;;;;;;;13.20;8.98;;;11.80;99.90;;;;;;5019653;28;20399;-36
2022/09/26 00:35:40;;;;;;;15.27;9.45;;;11.80;99.90;;;;;;5018695;28;20029;-36
2022/09/26 00:38:06;;;;;;;12.88;8.65;;;11.80;99.90;;;;;;5022689;28;20061;-40
2022/09/26 00:40:32;;;;;;;14.07;8.73;;;11.70;99.90;;;;;;5024761;28;20083;-40
2022/09/26 00:42:58;;;;;;;13.35;8.90;;;11.70;99.90;;;;;;5020547;28;20491;-37
2022/09/26 00:45:29;;;;;;;12.45;8.38;;;11.70;99.90;;;;;;5014884;28;20517;-37
2022/09/26 00:48:00;;;;;;;11.82;7.80;;;11.70;99.90;;;;;;5021932;28;20034;-43
2022/09/26 00:50:32;;;;;;;12.48;7.68;;;11.70;99.90;;;;;;5019792;28;20044;-42
2022/09/26 00:53:13;;;;;;;15.32;8.45;;;11.60;99.90;;;;;;5019645;28;20033;-39
2022/09/26 00:55:44;;;;;;;12.93;8.80;;;11.60;99.90;;;;;;5022920;28;20119;-41
2022/09/26 00:58:18;;;;;;;13.75;7.97;;;11.70;99.90;;;;;;5026492;28;20116;-42
2022/09/26 01:00:47;;;;;;;13.48;8.82;;;11.60;99.90;;;;;;5020508;28;20044;-32
2022/09/26 01:03:15;;;;;;;15.60;9.85;;;11.60;99.90;;;;;;5026155;28;20474;-32
2022/09/26 01:05:42;;;;;;;15.63;9.43;;;11.60;99.90;;;;;;5021469;28;20030;-31
2022/09/26 01:08:09;;;;;;;18.57;9.27;;;11.60;99.90;;;;;;5020367;28;20033;-37
2022/09/26 01:10:36;;;;;;;15.30;9.40;;;11.60;99.90;;;;;;5021150;28;20153;-32
2022/09/26 01:13:04;;;;;;;13.43;9.13;;;11.60;99.90;;;;;;5023479;28;20029;-33
2022/09/26 01:15:29;;;;;;;16.17;9.48;;;11.60;99.90;;;;;;5019364;28;20026;-33
2022/09/26 01:17:55;;;;;;;16.90;9.20;;;11.60;99.90;;;;;;5020364;28;20022;-32
2022/09/26 01:20:49;;;;;;;14.93;9.52;;;11.60;99.90;;;;;;5022595;28;20574;-33
2022/09/26 01:24:03;;;;;;;14.30;8.73;;;11.70;99.90;;;;;;5027428;28;20025;-37
2022/09/26 01:26:51;;;;;;;14.63;9.52;;;11.60;99.90;;;;;;4971655;28;20049;-33
2022/09/26 01:29:35;;;;;;;15.95;9.20;;;11.60;99.90;;;;;;5022398;28;20033;-34
2022/09/26 01:35:33;;;;;;;13.85;8.48;;;11.60;99.90;;;;;;5022958;28;20435;-32
2022/09/26 01:38:28;;;;;;;14.32;8.98;;;11.60;99.90;;;;;;5020137;28;20028;-34
2022/09/26 01:41:25;;;;;;;14.73;9.15;;;11.70;99.90;;;;;;5018726;28;20047;-37
2022/09/26 01:44:22;;;;;;;14.27;8.07;;;11.60;99.90;;;;;;5020154;28;20163;-34
2022/09/26 01:47:12;;;;;;;15.13;9.73;;;11.70;99.90;;;;;;5020565;28;20104;-33
2022/09/26 01:49:40;;;;;;;16.98;9.68;;;11.70;99.90;;;;;;5001637;28;20634;-32
2022/09/26 01:52:05;;;;;;;13.73;8.77;;;11.70;99.90;;;;;;5022835;28;20041;-34
2022/09/26 01:54:40;;;;;;;12.60;8.70;;;11.70;99.90;;;;;;5018676;28;20018;-36
2022/09/26 01:57:17;;;;;;;15.77;9.52;;;11.70;99.90;;;;;;5021790;28;20037;-35
2022/09/26 01:59:49;;;;;;;14.52;9.02;;;11.60;99.90;;;;;;5021848;28;20577;-38
2022/09/26 02:02:27;;;;;;;12.40;7.78;;;11.60;99.90;;;;;;5020664;28;20029;-34
2022/09/26 02:04:58;;;;;;;13.93;8.98;;;11.60;99.90;;;;;;5018185;28;20544;-39
2022/09/26 02:07:33;;;;;;;13.25;8.40;;;11.70;99.90;;;;;;5020818;28;20120;-35
2022/09/26 02:10:27;;;;;;;13.35;8.15;;;11.60;99.90;;;;;;5022332;28;20060;-34
2022/09/26 02:13:01;;;;;;;15.30;8.65;;;11.60;99.90;;;;;;5015409;28;20041;-32
2022/09/26 02:15:31;;;;;;;14.80;9.27;;;11.60;99.90;;;;;;5017331;28;20033;-33
2022/09/26 02:18:08;;;;;;;16.42;8.48;;;11.60;99.90;;;;;;5020354;28;20029;-35
2022/09/26 02:20:37;;;;;;;15.53;8.90;;;11.60;99.90;;;;;;5022576;28;20056;-33
2022/09/26 02:23:03;;;;;;;18.38;9.48;;;11.60;99.90;;;;;;5020474;28;20163;-33
2022/09/26 02:25:29;;;;;;;12.80;8.68;;;11.60;99.90;;;;;;5016757;28;20045;-33
2022/09/26 02:27:56;;;;;;;16.27;8.82;;;11.60;99.90;;;;;;5021826;28;20033;-32
2022/09/26 02:30:21;;;;;;;15.85;8.98;;;11.60;99.90;;;;;;5020669;28;20447;-35
2022/09/26 02:32:47;;;;;;;16.00;8.45;;;11.60;99.90;;;;;;5017959;28;20037;-33
2022/09/26 02:37:58;;;;;;;13.75;9.02;;;11.60;99.90;;;;;;5018981;28;20091;-34
2022/09/26 02:40:31;;;;;;;13.25;8.15;;;11.60;99.90;;;;;;5021758;28;20029;-33
2022/09/26 02:43:11;;;;;;;15.32;7.82;;;11.60;99.90;;;;;;5018260;28;20846;-34
2022/09/26 02:46:22;;;;;;;13.57;8.02;;;11.60;99.90;;;;;;5019777;28;20037;-32
2022/09/26 02:49:02;;;;;;;14.73;8.15;;;11.60;99.90;;;;;;5008381;28;20045;-33
2022/09/26 02:51:58;;;;;;;14.40;9.02;;;11.60;99.90;;;;;;5021835;28;20568;-37
2022/09/26 02:54:38;;;;;;;14.75;8.80;;;11.60;99.90;;;;;;5020116;28;21132;-32
2022/09/26 02:57:12;;;;;;;13.27;8.32;;;11.70;99.90;;;;;;5018869;28;20514;-32
2022/09/26 03:00:18;;;;;;;14.88;8.93;;;11.70;99.90;;;;;;5020342;28;20025;-33
2022/09/26 03:02:49;;;;;;;12.57;8.27;;;11.60;99.90;;;;;;5022694;28;20088;-33
2022/09/26 03:05:25;;;;;;;15.70;8.55;;;11.60;99.90;;;;;;5019033;28;20049;-33
2022/09/26 03:07:55;;;;;;;13.25;7.63;;;11.70;99.90;;;;;;5017349;28;20041;-33
2022/09/26 03:10:23;;;;;;;14.20;8.48;;;11.60;99.90;;;;;;5022137;28;20366;-35
2022/09/26 03:12:50;;;;;;;16.27;8.50;;;11.60;99.90;;;;;;5022325;28;20033;-33
2022/09/26 03:15:16;;;;;;;16.08;8.98;;;11.60;99.90;;;;;;5016833;28;20292;-33
2022/09/26 03:17:48;;;;;;;15.82;8.98;;;11.60;99.90;;;;;;5024406;28;20039;-33
2022/09/26 03:20:24;;;;;;;15.13;8.90;;;11.60;99.90;;;;;;5021834;28;20045;-33
2022/09/26 03:22:50;;;;;;;13.45;8.32;;;11.60;99.90;;;;;;5020147;28;20049;-34
2022/09/26 03:25:24;;;;;;;15.40;7.82;;;11.60;99.90;;;;;;5016021;28;20033;-33
2022/09/26 03:27:52;;;;;;;13.00;7.93;;;11.70;99.90;;;;;;5023028;28;20121;-34
2022/09/26 03:30:20;;;;;;;16.33;9.15;;;11.60;99.90;;;;;;5019155;28;20537;-35
2022/09/26 03:32:46;;;;;;;14.90;8.15;;;11.60;99.90;;;;;;5022198;28;20479;-33
2022/09/26 03:35:12;;;;;;;14.88;8.10;;;11.50;99.90;;;;;;5021299;28;20026;-32
2022/09/26 03:37:38;;;;;;;12.13;7.50;;;11.40;99.90;;;;;;5018540;28;20113;-32
2022/09/26 03:40:06;;;;;;;13.07;7.85;;;11.40;99.90;;;;;;5022818;28;20033;-32
2022/09/26 03:42:35;;;;;;;13.85;8.73;;;11.40;99.90;;;;;;5018830;28;20129;-35
2022/09/26 03:45:02;;;;;;;13.98;7.93;;;11.40;99.90;;;;;;5019160;28;20042;-32
2022/09/26 03:47:27;;;;;;;15.93;8.70;;;11.50;99.90;;;;;;5024435;28;20113;-34
2022/09/26 03:49:53;;;;;;;17.30;8.98;;;11.50;99.90;;;;;;5016976;28;20116;-33
2022/09/26 03:52:19;;;;;;;16.02;8.38;;;11.50;99.90;;;;;;5022753;28;20472;-32
2022/09/26 03:54:44;;;;;;;10.95;7.13;;;11.50;99.90;;;;;;5012840;28;20014;-33
2022/09/26 03:57:14;;;;;;;14.70;8.00;;;11.40;99.90;;;;;;5018537;28;20100;-32
2022/09/26 03:59:40;;;;;;;12.60;7.13;;;11.40;99.90;;;;;;5019455;28;20036;-33
2022/09/26 04:02:06;;;;;;;8.63;5.93;;;11.30;99.90;;;;;;5020025;28;20029;-35
2022/09/26 04:04:32;;;;;;;13.20;7.25;;;11.30;99.90;;;;;;5018921;28;20056;-33
2022/09/26 04:06:58;;;;;;;14.13;6.72;;;11.30;99.90;;;;;;5021862;28;20108;-36
2022/09/26 04:09:24;;;;;;;10.73;6.57;;;11.30;99.90;;;;;;5018089;28;20418;-34
2022/09/26 04:11:51;;;;;;;11.98;7.03;;;11.20;99.90;;;;;;5016083;28;20029;-35
2022/09/26 04:14:17;;;;;;;8.68;5.55;;;11.20;99.90;;;;;;5019168;28;20029;-32
2022/09/26 04:16:43;;;;;;;11.57;6.47;;;11.20;99.90;;;;;;5018506;28;20025;-33
2022/09/26 04:19:10;;;;;;;11.00;5.63;;;11.20;99.90;;;;;;5023234;28;20022;-38
2022/09/26 04:21:39;;;;;;;9.45;6.20;;;11.20;99.90;;;;;;5022142;28;20140;-35
2022/09/26 04:24:05;;;;;;;8.68;5.68;;;11.20;99.90;;;;;;5014549;28;20479;-33
2022/09/26 04:26:31;;;;;;;9.45;5.63;;;11.10;99.90;;;;;;5023016;28;20125;-34
2022/09/26 04:28:57;;;;;;;10.70;6.63;;;11.00;99.90;;;;;;5021938;28;20325;-33
2022/09/26 04:31:26;;;;;;;9.70;5.97;;;11.10;99.90;;;;;;5016818;28;20034;-35
2022/09/26 04:33:54;;;;;;;;;;;11.10;99.90;;;;;;5018189;28;20145;-36
2022/09/26 04:36:19;;;;;;;10.60;5.65;;;11.00;99.90;;;;;;5023464;28;19912;-34
2022/09/26 04:38:45;;;;;;;7.53;5.00;;;11.00;99.90;;;;;;5022532;28;20454;-35
2022/09/26 04:41:20;;;;;;;10.27;6.18;;;11.00;99.90;;;;;;5022002;28;20040;-37
2022/09/26 04:43:47;;;;;;;10.80;6.03;;;11.00;99.90;;;;;;5025216;28;20037;-35
2022/09/26 04:46:15;;;;;;;11.85;6.15;;;11.00;99.90;;;;;;5022824;28;20462;-33
2022/09/26 04:48:41;;;;;;;10.13;6.28;;;11.00;99.90;;;;;;5024418;28;20041;-34
2022/09/26 04:51:10;;;;;;;11.50;6.43;;;10.90;99.90;;;;;;5020728;28;20037;-36
2022/09/26 04:53:37;;;;;;;10.65;6.10;;;11.00;99.90;;;;;;5023038;28;20540;-32
2022/09/26 04:56:03;;;;;;;9.52;6.20;;;10.90;99.90;;;;;;5017808;28;20116;-36
2022/09/26 04:58:29;;;;;;;9.85;6.28;;;11.10;99.90;;;;;;5025489;28;20040;-33
2022/09/26 05:00:59;;;;;;;10.55;6.43;;;11.00;99.90;;;;;;5014540;28;20034;-35
2022/09/26 05:03:27;;;;;;;12.10;6.38;;;11.00;99.90;;;;;;5025882;28;20036;-33
2022/09/26 05:05:53;;;;;;;10.90;6.43;;;11.00;99.90;;;;;;5018301;28;20025;-32
2022/09/26 05:08:18;;;;;;;11.73;6.32;;;11.10;99.90;;;;;;5025346;28;20040;-32
2022/09/26 05:10:55;;;;;;;14.60;6.68;;;11.10;99.90;;;;;;5024146;28;20092;-32
2022/09/26 05:13:25;;;;;;;11.50;5.97;;;11.10;99.90;;;;;;5019566;28;20057;-33
2022/09/26 05:15:54;;;;;;;9.68;6.15;;;11.10;99.90;;;;;;5017425;28;20581;-33
2022/09/26 05:18:21;;;;;;;14.05;7.60;;;11.00;99.90;;;;;;5022103;28;20025;-34
2022/09/26 05:20:47;;;;;;;9.93;6.25;;;11.00;99.90;;;;;;5024545;28;20059;-33
2022/09/26 05:28:43;;;;;;;8.90;5.70;;;11.10;99.90;;;;;;5022066;28;20912;-34
2022/09/26 05:31:09;;;;;;;8.75;5.68;;;11.20;99.90;;;;;;5018710;28;20037;-35
2022/09/26 05:33:36;;;;;;;10.10;6.00;;;11.10;99.90;;;;;;5025682;28;20025;-33
2022/09/26 05:36:03;;;;;;;10.70;5.55;;;11.20;99.90;;;;;;5016073;28;20022;-36
2022/09/26 05:38:28;;;;;;;9.30;5.82;;;11.20;99.90;;;;;;5024369;28;20032;-33
2022/09/26 05:40:57;;;;;;;11.00;5.97;;;11.20;99.90;;;;;;5013255;28;20017;-33
2022/09/26 05:43:26;;;;;;;11.50;5.80;;;11.20;99.90;;;;;;5016364;28;20491;-35
2022/09/26 05:46:03;;;;;;;8.68;5.18;;;11.20;99.90;;;;;;5015800;28;20038;-33
2022/09/26 05:48:31;;;;;;;8.35;4.75;;;11.20;99.90;;;;;;5016074;28;20037;-38
2022/09/26 05:51:01;;;;;;;8.90;5.22;;;11.20;99.90;;;;;;5015282;28;20025;-33
2022/09/26 05:53:27;;;;;;;8.88;5.43;;;11.20;99.90;;;;;;5018352;28;20564;-39
2022/09/26 05:55:52;;;;;;;8.65;5.15;;;11.20;99.90;;;;;;5015958;28;20026;-34
2022/09/26 05:58:18;;;;;;;7.45;4.80;;;11.20;99.90;;;;;;5018386;28;20382;-32
2022/09/26 06:00:48;;;;;;;9.85;4.45;;;11.20;99.90;;;;;;5018342;28;20026;-36
2022/09/26 06:03:14;;;;;;;8.70;5.22;;;11.20;99.90;;;;;;5020293;28;20040;-34
2022/09/26 06:05:41;;;;;;;8.40;5.22;;;11.20;99.90;;;;;;5014711;28;20744;-36
2022/09/26 06:08:10;;;;;;;9.80;5.43;;;11.20;99.90;;;;;;5021078;28;20029;-35
2022/09/26 06:10:37;;;;;;;8.43;5.30;;;11.20;99.90;;;;;;5022201;28;20463;-33
2022/09/26 06:13:04;;;;;;;6.90;5.23;;;11.30;99.90;;;;;;5015616;28;20561;-37
2022/09/26 06:15:30;;;;;;;7.88;5.13;;;11.20;99.90;;;;;;5014487;28;20057;-34
2022/09/26 06:18:03;;;;;;;9.02;5.00;;;11.20;99.90;;;;;;5019065;28;20128;-33
2022/09/26 06:20:28;;;;;;;8.30;5.10;;;11.20;99.90;;;;;;5016031;28;20513;-35
2022/09/26 06:22:54;;;;;;;9.07;4.43;;;11.30;99.90;;;;;;5021940;28;20029;-33
2022/09/26 06:25:20;;;;;;;7.63;4.80;;;11.20;99.90;;;;;;5021848;28;20033;-34
2022/09/26 06:27:47;;;;;;;9.32;4.72;;;11.20;99.90;;;;;;5017905;28;20036;-33
2022/09/26 06:30:13;;;;;;;8.38;4.95;;;11.20;99.90;;;;;;5015231;28;20034;-36
2022/09/26 06:32:39;;;;;;;7.60;4.28;;;11.20;99.90;;;;;;5019273;28;20759;-33
2022/09/26 06:35:05;;;;;;;8.32;5.18;;;11.10;99.90;;;;;;5020551;28;20072;-33
2022/09/26 06:37:31;;;;;;;6.40;4.60;;;11.20;99.90;;;;;;5016816;28;20384;-35
2022/09/26 06:39:56;;;;;;;8.10;4.85;;;11.20;99.90;;;;;;5018216;28;20037;-33
2022/09/26 06:42:24;;;;;;;8.00;4.60;;;11.20;99.90;;;;;;5022958;28;20487;-34
2022/09/26 06:44:49;;;;;;;6.68;4.63;;;11.20;99.90;;;;;;5024091;28;20029;-35
2022/09/26 06:47:16;;;;;;;9.45;5.13;;;11.30;99.90;;;;;;5024717;28;20430;-32
2022/09/26 06:49:44;;;;;;;8.65;4.95;;;11.20;99.90;;;;;;5019270;28;20095;-34
2022/09/26 06:52:10;;;;;;;9.30;5.45;;;11.20;99.90;;;;;;5018063;28;20030;-33
2022/09/26 06:54:36;;;;;;;9.35;5.43;;;11.30;99.90;;;;;;5021746;28;20042;-32
2022/09/26 06:57:01;;;;;;;7.53;4.80;;;11.30;99.90;;;;;;5019449;28;20024;-32
2022/09/26 06:59:27;;;;;;;10.82;5.63;;;11.30;99.90;;;;;;5016905;28;20446;-32
2022/09/26 07:01:53;;;;;;;9.35;5.45;;;11.40;99.90;;;;;;5020898;28;20033;-34
2022/09/26 07:04:18;;;;;;;11.95;5.43;;;11.40;99.90;;;;;;5019721;28;20025;-34
2022/09/26 07:06:44;;;;;;;8.98;5.38;;;11.40;99.90;;;;;;5017716;28;20047;-33
2022/09/26 07:09:09;;;;;;;11.07;5.72;;;11.40;99.90;;;;;;5019976;28;20029;-32
2022/09/26 07:11:36;;;;;;;9.10;5.88;;;11.50;99.90;;;;;;5019273;28;20371;-34
2022/09/26 07:14:02;;;;;;;11.68;5.75;;;11.60;99.90;;;;;;5020552;28;20096;-33
2022/09/26 07:16:27;;;;;;;9.57;5.88;;;11.60;99.90;;;;;;5019396;28;20032;-33
2022/09/26 07:18:54;;;;;;;10.57;6.22;;;11.50;99.90;;;;;;5021496;28;20474;-32
2022/09/26 07:21:19;;;;;;;10.23;6.18;;;11.60;99.90;;;;;;5016710;28;20160;-36
2022/09/26 07:23:45;;;;;;;8.73;5.75;;;11.60;99.90;;;;;;5016586;28;20079;-38
2022/09/26 07:26:11;;;;;;;8.38;5.40;;;11.60;99.90;;;;;;5017191;28;20171;-35
2022/09/26 07:28:37;;;;;;;11.82;6.22;;;11.60;99.90;;;;;;5021646;28;20514;-32
2022/09/26 07:31:03;;;;;;;7.60;4.90;;;11.60;99.90;;;;;;5020050;28;20037;-35
2022/09/26 07:33:29;;;;;;;9.68;4.90;;;11.60;99.90;;;;;;5018044;28;20479;-37
2022/09/26 07:35:56;;;;;;;10.30;5.53;;;11.70;99.90;;;;;;5018764;28;20033;-33
2022/09/26 07:38:22;;;;;;;8.55;5.13;;;11.80;99.90;;;;;;5018085;28;20037;-33
2022/09/26 07:40:52;;;;;;;7.47;4.38;;;11.80;99.90;;;;;;5017706;28;20530;-32
2022/09/26 07:43:18;;;;;;;8.15;4.55;;;11.90;99.90;;;;;;5018379;28;20116;-35
2022/09/26 07:51:12;;;;;;;5.93;4.13;;;12.00;99.90;;;;;;5019145;28;20041;-33
2022/09/26 07:53:40;;;;;;;9.18;3.63;;;12.10;99.90;;;;;;5017644;28;20037;-35
2022/09/26 07:56:09;;;;;;;7.10;3.97;;;12.20;99.90;;;;;;5018297;28;20254;-33
2022/09/26 07:58:40;;;;;;;8.45;4.03;;;12.30;99.90;;;;;;5016586;28;20026;-33
2022/09/26 08:01:10;;;;;;;6.13;4.00;;;12.40;99.90;;;;;;5018925;28;20121;-33
2022/09/26 08:03:37;;;;;;;5.38;3.97;;;12.40;99.90;;;;;;5018909;28;20117;-37
2022/09/26 08:06:03;;;;;;;5.72;3.95;;;12.20;99.90;;;;;;5016695;28;20161;-34
2022/09/26 08:08:29;;;;;;;4.78;3.58;;;12.20;99.90;;;;;;5018815;28;20048;-33
2022/09/26 08:10:56;;;;;;;5.88;4.07;;;12.30;99.90;;;;;;5019413;28;20083;-36
2022/09/26 08:13:23;;;;;;;8.23;4.40;;;12.60;99.90;;;;;;5018579;28;20076;-32
2022/09/26 08:15:49;;;;;;;7.07;3.92;;;13.00;99.90;;;;;;5023027;28;20495;-35
2022/09/26 08:18:15;;;;;;;4.10;3.60;;;13.20;99.90;;;;;;5019219;28;20025;-38
2022/09/26 08:20:45;;;;;;;4.22;3.22;;;13.20;99.90;;;;;;5021028;28;20608;-33
2022/09/26 08:23:13;;;;;;;4.32;3.25;;;13.10;99.90;;;;;;5021540;28;20079;-38
2022/09/26 08:25:39;;;;;;;4.85;3.00;;;13.10;99.90;;;;;;5020555;28;20043;-38
2022/09/26 08:28:11;;;;;;;4.47;3.00;;;13.00;99.90;;;;;;5020107;28;20087;-37
2022/09/26 08:30:37;;;;;;;6.47;2.95;;;13.00;99.90;;;;;;5019731;28;20064;-34
2022/09/26 08:33:03;;;;;;;4.72;2.72;;;12.80;99.90;;;;;;5021568;28;20128;-35
2022/09/26 08:35:32;;;;;;;4.22;2.85;;;12.60;99.90;;;;;;5020379;28;20571;-33
2022/09/26 08:38:02;;;;;;;4.78;2.10;;;12.70;99.90;;;;;;5022030;28;20096;-33
2022/09/26 08:40:34;;;;;;;3.13;2.80;;;12.80;99.90;;;;;;5018126;28;20040;-33
2022/09/26 08:43:37;;;;;;;3.70;2.55;;;12.90;99.90;;;;;;5022960;28;20079;-35
2022/09/26 08:49:24;;;;;;;4.38;2.80;;;13.00;99.90;;;;;;5019870;28;20053;-33
2022/09/26 08:51:55;;;;;;;3.75;2.45;;;13.00;99.90;;;;;;5022455;28;20033;-36
2022/09/26 08:54:30;;;;;;;5.68;2.92;;;13.00;99.90;;;;;;5019838;28;20556;-35
2022/09/26 08:57:01;;;;;;;5.55;2.70;;;13.00;99.90;;;;;;5021087;28;20066;-35
2022/09/26 08:59:37;;;;;;;4.93;3.00;;;13.10;99.90;;;;;;5019825;28;20634;-36
2022/09/26 09:02:09;;;;;;;5.40;2.72;;;13.20;99.90;;;;;;5020306;28;20132;-33
2022/09/26 09:04:46;;;;;;;5.07;3.03;;;13.70;99.90;;;;;;5022088;28;20061;-36
2022/09/26 09:07:23;;;;;;;3.85;2.88;;;13.40;99.90;;;;;;5021179;28;20038;-36
2022/09/26 09:09:50;;;;;;;4.78;3.33;;;13.40;99.90;;;;;;5022625;28;20124;-36
2022/09/26 09:12:24;;;;;;;4.07;3.10;;;13.50;99.90;;;;;;5019629;28;20042;-36
2022/09/26 09:15:02;;;;;;;6.47;2.90;;;13.40;99.90;;;;;;5019314;28;20028;-34
2022/09/26 09:17:46;;;;;;;;;;;13.20;99.90;;;;;;5018995;28;20097;-32
2022/09/26 09:20:23;;;;;;;3.63;2.30;;;13.10;99.90;;;;;;5019424;28;20334;-33
2022/09/26 09:23:01;;;;;;;4.22;2.65;;;13.10;99.90;;;;;;5020374;28;20083;-34
2022/09/26 09:26:01;;;;;;;4.78;2.80;;;13.20;99.90;;;;;;5017521;28;20139;-35
2022/09/26 09:29:08;;;;;;;4.22;2.80;;;13.20;99.90;;;;;;5020318;28;20184;-36
2022/09/26 09:31:39;;;;;;;3.15;2.55;;;13.40;99.90;;;;;;5017606;28;20128;-33
2022/09/26 09:34:13;;;;;;;3.05;2.72;;;13.60;99.90;;;;;;5019939;28;20103;-37
2022/09/26 09:36:47;;;;;;;4.00;2.60;;;13.70;99.90;;;;;;5020293;28;20029;-34
2022/09/26 09:39:35;;;;;;;3.78;2.42;;;13.80;99.90;;;;;;5020959;28;21226;-35
2022/09/26 09:42:16;;;;;;;4.53;2.60;;;14.00;99.90;;;;;;5019042;28;20029;-34
2022/09/26 09:45:03;;;;;;;4.05;2.72;;;13.60;99.90;;;;;;5020063;28;20375;-34
2022/09/26 09:47:29;;;;;;;4.00;2.90;;;13.60;99.90;;;;;;5020632;28;20029;-34
2022/09/26 09:49:56;;;;;;;3.72;3.00;;;13.40;99.90;;;;;;5020939;28;20036;-32
2022/09/26 09:52:27;;;;;;;3.40;3.03;;;13.50;99.90;;;;;;5021186;28;20061;-34
2022/09/26 09:55:21;;;;;;;3.65;2.50;;;13.80;99.90;;;;;;5016671;28;20040;-34
2022/09/26 09:58:19;;;;;;;4.18;3.00;;;13.90;99.90;;;;;;5018755;28;20526;-36
2022/09/26 10:01:12;;;;;;;3.83;2.67;;;13.70;99.90;;;;;;5018416;28;20085;-34
2022/09/26 10:03:54;;;;;;;3.83;2.50;;;13.80;99.90;;;;;;5016617;28;20029;-33
2022/09/26 10:06:21;;;;;;;3.05;2.45;;;13.80;99.90;;;;;;5016523;28;20174;-35
2022/09/26 10:08:49;;;;;;;3.67;2.47;;;13.90;99.90;;;;;;5016325;28;20133;-35
2022/09/26 10:11:38;;;;;;;2.80;2.17;;;14.00;99.90;;;;;;5017870;28;20034;-36
2022/09/26 10:14:12;;;;;;;2.67;2.47;;;14.00;99.90;;;;;;5017649;28;20525;-33
2022/09/26 10:17:23;;;;;;;3.53;2.30;;;13.80;99.90;;;;;;5019954;28;20034;-33
2022/09/26 10:19:50;;;;;;;3.13;2.13;;;13.70;99.90;;;;;;5017488;28;20627;-37
2022/09/26 10:22:44;;;;;;;2.38;2.17;;;13.70;99.90;;;;;;5017866;28;20017;-34
2022/09/26 10:25:22;;;;;;;3.03;2.30;;;13.60;99.90;;;;;;5012898;28;20037;-35
2022/09/26 10:27:53;;;;;;;2.90;2.30;;;13.50;99.90;;;;;;5020310;28;20034;-38
2022/09/26 10:30:19;;;;;;;4.22;2.50;;;13.60;99.90;;;;;;5016083;28;20037;-36
2022/09/26 10:32:48;;;;;;;2.78;2.35;;;13.70;99.90;;;;;;5020974;28;20048;-35
2022/09/26 10:35:17;;;;;;;3.95;2.35;;;13.80;99.90;;;;;;5019686;28;20041;-34
2022/09/26 10:38:09;;;;;;;4.35;2.20;;;14.10;99.90;;;;;;5019141;28;20036;-33
2022/09/26 10:40:45;;;;;;;2.92;1.73;;;14.00;99.90;;;;;;5007852;28;20584;-35
2022/09/26 10:43:30;;;;;;;2.38;2.17;;;14.00;99.90;;;;;;5017305;28;20039;-36
2022/09/26 10:46:15;;;;;;;2.80;2.10;;;13.90;99.90;;;;;;5015645;28;20037;-31
2022/09/26 10:48:45;;;;;;;2.35;2.05;;;14.10;99.90;;;;;;5017142;28;20041;-33
2022/09/26 10:51:19;;;;;;;2.30;2.10;;;14.00;99.90;;;;;;5017803;28;20088;-31
2022/09/26 10:53:50;;;;;;;2.72;2.33;;;14.00;99.90;;;;;;5017156;28;20032;-31
2022/09/26 10:56:25;;;;;;;2.53;2.17;;;14.10;99.90;;;;;;5018596;28;20030;-31
2022/09/26 10:58:56;;;;;;;3.90;2.72;;;14.00;99.90;;;;;;5022122;28;20131;-35
2022/09/26 11:01:25;;;;;;;4.93;2.22;;;14.10;99.90;;;;;;5015410;28;20033;-32
2022/09/26 11:03:54;;;;;;;2.65;2.35;;;14.00;99.90;;;;;;5020925;28;20463;-32
2022/09/26 11:06:39;;;;;;;2.38;1.88;;;14.00;99.90;;;;;;5021145;28;20022;-30
2022/09/26 11:09:06;;;;;;;3.42;2.70;;;13.80;99.90;;;;;;5021555;28;20041;-31
2022/09/26 11:11:35;;;;;;;2.88;1.58;;;13.70;99.90;;;;;;5023092;28;20402;-36
2022/09/26 11:14:04;;;;;;;1.90;1.50;;;13.50;99.90;;;;;;5018394;28;20549;-34
2022/09/26 11:16:54;;;;;;;1.23;1.13;;;13.40;99.90;;;;;;5019215;28;20411;-29
2022/09/26 11:19:57;;;;;;;1.30;1.10;;;13.40;99.90;;;;;;5012394;28;20033;-31
2022/09/26 11:22:38;;;;;;;1.25;1.15;;;13.30;99.90;;;;;;5013739;28;20384;-30
2022/09/26 11:25:24;;;;;;;1.48;1.25;;;13.40;99.90;;;;;;5020291;28;20033;-34
2022/09/26 11:27:53;;;;;;;1.33;1.10;;;13.40;99.90;;;;;;5021332;28;20028;-30
2022/09/26 11:30:21;;;;;;;1.73;1.63;;;13.50;99.90;;;;;;5021561;28;20029;-34
2022/09/26 11:32:50;;;;;;;1.50;1.40;;;13.90;99.90;;;;;;5021964;28;20033;-32
2022/09/26 11:35:29;;;;;;;1.08;0.85;;;13.90;99.90;;;;;;5022672;28;20037;-34
2022/09/26 11:38:27;;;;;;;2.40;1.50;;;13.90;98.30;;;;;;5021427;28;20022;-30
2022/09/26 11:40:58;;;;;;;1.40;1.30;;;13.90;99.90;;;;;;5022493;28;20498;-31
2022/09/26 11:43:53;;;;;;;1.60;1.48;;;14.10;99.90;;;;;;5022414;28;20057;-31
2022/09/26 11:46:34;;;;;;;2.15;1.35;;;14.20;99.90;;;;;;5018850;28;20039;-31
2022/09/26 11:49:09;;;;;;;1.55;1.45;;;14.40;99.90;;;;;;5018641;28;20029;-29
2022/09/26 11:51:54;;;;;;;1.92;1.58;;;14.40;99.90;;;;;;5025343;28;20037;-30
2022/09/26 11:54:22;;;;;;;1.50;1.40;;;14.40;99.80;;;;;;5016646;28;20050;-31
2022/09/26 11:57:20;;;;;;;2.28;1.42;;;14.30;99.90;;;;;;5023556;28;20028;-31
2022/09/26 11:59:57;;;;;;;1.50;1.40;;;14.40;99.90;;;;;;5020706;28;20429;-33
2022/09/26 12:03:00;;;;;;;1.65;1.42;;;14.50;99.90;;;;;;5020804;28;20038;-30
2022/09/26 12:05:53;;;;;;;2.33;1.58;;;14.50;99.90;;;;;;5018743;28;20037;-32
2022/09/26 12:08:24;;;;;;;2.33;1.45;;;14.30;99.90;;;;;;5018886;28;20033;-31
2022/09/26 12:11:19;;;;;;;1.48;1.20;;;14.30;99.90;;;;;;5023073;28;20013;-30
2022/09/26 12:14:08;;;;;;;1.77;1.45;;;14.30;99.90;;;;;;5020451;28;22424;-29
2022/09/26 12:16:53;;;;;;;1.45;1.35;;;14.40;99.90;;;;;;4983763;28;20526;-31
2022/09/26 12:20:00;;;;;;;1.70;1.60;;;14.30;99.90;;;;;;5022703;28;20030;-31
2022/09/26 12:22:34;;;;;;;2.13;1.60;;;14.30;99.90;;;;;;5020818;28;20040;-32
2022/09/26 12:25:34;;;;;;;1.35;1.20;;;14.30;99.90;;;;;;5021576;28;20026;-35
2022/09/26 12:28:28;;;;;;;3.10;1.38;;;14.50;99.90;;;;;;5022713;28;20068;-33
2022/09/26 12:31:16;;;;;;;1.02;0.90;;;14.90;99.90;;;;;;5020667;28;20111;-30
2022/09/26 12:34:26;;;;;;;1.30;1.20;;;15.10;99.10;;;;;;5014504;28;20029;-34
2022/09/26 12:37:25;;;;;;;1.63;1.25;;;15.10;97.70;;;;;;4985818;28;20053;-32
2022/09/26 12:40:09;;;;;;;1.23;1.08;;;15.10;97.00;;;;;;5022107;28;20498;-31
2022/09/26 12:42:57;;;;;;;1.35;1.25;;;15.20;95.30;;;;;;5018270;28;20087;-31
2022/09/26 12:45:23;;;;;;;;;;;15.10;94.90;;;;;;5017699;28;20534;-30
2022/09/26 12:47:54;;;;;;;1.30;0.82;;;15.20;96.10;;;;;;5024547;28;20008;-30
2022/09/26 12:50:52;;;;;;;1.23;1.13;;;15.10;92.00;;;;;;5022378;28;20049;-33
2022/09/26 12:53:37;;;;;;;1.63;1.40;;;15.10;96.50;;;;;;5018506;28;20128;-31
2022/09/26 12:56:14;;;;;;;1.08;0.98;;;15.00;97.80;;;;;;5019255;28;20033;-31
2022/09/26 12:59:21;;;;;;;1.10;1.00;;;14.80;90.50;;;;;;5026844;28;20049;-31
2022/09/26 13:02:22;;;;;;;0.90;0.90;;;14.60;81.90;;;;;;5023647;28;20034;-30
2022/09/26 13:05:22;;;;;;;1.48;0.95;;;14.50;81.00;;;;;;4992549;28;20389;-31
2022/09/26 13:07:53;;;;;;;1.70;1.17;;;14.40;90.20;;;;;;4987232;28;20068;-30
2022/09/26 13:10:22;;;;;;;2.90;1.30;;;14.50;93.90;;;;;;5023221;28;20104;-31
2022/09/26 13:13:12;;;;;;;1.65;1.35;;;14.70;95.90;;;;;;5018446;28;20041;-33
2022/09/26 13:15:56;;;;;;;1.58;1.25;;;14.80;94.70;;;;;;5023018;28;20487;-33
2022/09/26 13:18:27;;;;;;;1.60;1.40;;;15.00;95.50;;;;;;5025315;28;20030;-37
2022/09/26 13:20:58;;;;;;;2.33;1.35;;;15.10;93.20;;;;;;5021321;28;20328;-34
2022/09/26 13:23:43;;;;;;;2.20;1.48;;;15.00;92.80;;;;;;5021750;28;20045;-32
2022/09/26 13:26:18;;;;;;;1.77;1.55;;;15.00;94.20;;;;;;5026218;28;20088;-34
2022/09/26 13:29:06;;;;;;;1.35;1.25;;;15.00;95.10;;;;;;5026090;28;20026;-35
2022/09/26 13:31:42;;;;;;;1.45;1.35;;;15.00;93.70;;;;;;5022839;28;20044;-38
2022/09/26 13:34:19;;;;;;;2.72;1.35;;;15.20;95.00;;;;;;5022153;28;20030;-34
2022/09/26 13:36:45;;;;;;;1.65;1.48;;;15.30;90.80;;;;;;5021585;28;20041;-33